sensor_id;sensor_type;location;lat;lon;timestamp;pressure;altitude;pressure_sealevel;temperature;humidity
76496;BME280;65329;52.544;4.662;2024-01-30T00:01:10;-18597.69;;;-139.74;0.00
76496;BME280;65329;52.544;4.662;2024-01-30T00:03:38;-18597.69;;;-139.74;0.00
76496;BME280;65329;52.544;4.662;2024-01-30T00:06:05;-18597.69;;;-139.74;0.00
76496;BME280;65329;52.544;4.662;2024-01-30T00:08:32;-18597.69;;;-139.74;0.00
76496;BME280;65329;52.544;4.662;2024-01-30T00:11:00;-18597.69;;;-139.74;0.00
76496;BME280;65329;52.544;4.662;2024-01-30T00:13:27;-18597.69;;;-139.74;0.00
76496;BME280;65329;52.544;4.662;2024-01-30T00:15:54;-18597.69;;;-139.74;0.00
76496;BME280;65329;52.544;4.662;2024-01-30T00:18:21;-18597.69;;;-139.74;0.00
76496;BME280;65329;52.544;4.662;2024-01-30T00:20:48;-18597.69;;;-139.74;0.00
76496;BME280;65329;52.544;4.662;2024-01-30T00:23:15;-18597.69;;;-139.74;0.00
76496;BME280;65329;52.544;4.662;2024-01-30T00:25:42;-18597.69;;;-139.74;0.00
76496;BME280;65329;52.544;4.662;2024-01-30T00:28:09;-18597.69;;;-139.74;0.00
76496;BME280;65329;52.544;4.662;2024-01-30T00:30:36;-18597.69;;;-139.74;0.00
76496;BME280;65329;52.544;4.662;2024-01-30T00:33:04;-18597.69;;;-139.74;0.00
76496;BME280;65329;52.544;4.662;2024-01-30T00:35:31;-18597.69;;;-139.74;0.00
76496;BME280;65329;52.544;4.662;2024-01-30T00:37:58;-18597.69;;;-139.74;0.00
76496;BME280;65329;52.544;4.662;2024-01-30T00:40:26;-18597.69;;;-139.74;0.00
76496;BME280;65329;52.544;4.662;2024-01-30T00:42:53;-18597.69;;;-139.74;0.00
76496;BME280;65329;52.544;4.662;2024-01-30T00:45:20;-18597.69;;;-139.74;0.00
76496;BME280;65329;52.544;4.662;2024-01-30T00:47:47;-18597.69;;;-139.74;0.00
76496;BME280;65329;52.544;4.662;2024-01-30T00:50:14;-18597.69;;;-139.74;0.00
76496;BME280;65329;52.544;4.662;2024-01-30T00:52:41;-18597.69;;;-139.74;0.00
76496;BME280;65329;52.544;4.662;2024-01-30T00:55:09;-18597.69;;;-139.74;0.00
76496;BME280;65329;52.544;4.662;2024-01-30T00:57:36;-18597.69;;;-139.74;0.00
76496;BME280;65329;52.544;4.662;2024-01-30T01:00:03;-18597.69;;;-139.74;0.00
76496;BME280;65329;52.544;4.662;2024-01-30T01:02:36;-18597.69;;;-139.74;0.00
76496;BME280;65329;52.544;4.662;2024-01-30T01:05:04;-18597.69;;;-139.74;0.00
76496;BME280;65329;52.544;4.662;2024-01-30T01:07:32;-18597.69;;;-139.74;0.00
76496;BME280;65329;52.544;4.662;2024-01-30T01:09:59;-18597.69;;;-139.74;0.00
76496;BME280;65329;52.544;4.662;2024-01-30T01:12:26;-18597.69;;;-139.74;0.00
76496;BME280;65329;52.544;4.662;2024-01-30T01:14:53;-18597.69;;;-139.74;0.00
76496;BME280;65329;52.544;4.662;2024-01-30T01:17:20;-18597.69;;;-139.74;0.00
76496;BME280;65329;52.544;4.662;2024-01-30T01:19:47;-18597.69;;;-139.74;0.00
76496;BME280;65329;52.544;4.662;2024-01-30T01:22:16;-18597.69;;;-139.74;0.00
76496;BME280;65329;52.544;4.662;2024-01-30T01:24:44;-18597.69;;;-139.74;0.00
76496;BME280;65329;52.544;4.662;2024-01-30T01:27:11;-18597.69;;;-139.74;0.00
76496;BME280;65329;52.544;4.662;2024-01-30T01:29:38;-18597.69;;;-139.74;0.00
76496;BME280;65329;52.544;4.662;2024-01-30T01:32:05;-18597.69;;;-139.74;0.00
76496;BME280;65329;52.544;4.662;2024-01-30T01:34:32;-18596.16;;;-139.74;0.00
76496;BME280;65329;52.544;4.662;2024-01-30T01:36:59;-18596.16;;;-139.74;0.00
76496;BME280;65329;52.544;4.662;2024-01-30T01:39:26;-18596.16;;;-139.74;0.00
76496;BME280;65329;52.544;4.662;2024-01-30T01:41:53;-18596.16;;;-139.74;0.00
76496;BME280;65329;52.544;4.662;2024-01-30T01:44:20;-18334.06;;;-139.74;0.00
76496;BME280;65329;52.544;4.662;2024-01-30T01:46:48;-18071.97;;;-139.74;0.00
76496;BME280;65329;52.544;4.662;2024-01-30T01:49:15;-18596.16;;;-139.74;0.00
76496;BME280;65329;52.544;4.662;2024-01-30T01:51:43;-18334.06;;;-139.74;0.00
76496;BME280;65329;52.544;4.662;2024-01-30T01:54:12;-17809.88;;;-139.74;0.00
76496;BME280;65329;52.544;4.662;2024-01-30T01:56:39;-18071.97;;;-139.74;0.00
76496;BME280;65329;52.544;4.662;2024-01-30T01:59:08;-17809.88;;;-139.74;0.00
76496;BME280;65329;52.544;4.662;2024-01-30T02:01:38;-18596.16;;;-139.74;0.00
76496;BME280;65329;52.544;4.662;2024-01-30T02:04:06;-18596.16;;;-139.74;0.00
76496;BME280;65329;52.544;4.662;2024-01-30T02:06:34;-18597.69;;;-139.74;0.00
76496;BME280;65329;52.544;4.662;2024-01-30T02:09:01;-18597.69;;;-139.74;0.00
76496;BME280;65329;52.544;4.662;2024-01-30T02:11:28;-18597.69;;;-139.74;0.00
76496;BME280;65329;52.544;4.662;2024-01-30T02:13:55;-18597.69;;;-139.74;0.00
76496;BME280;65329;52.544;4.662;2024-01-30T02:16:23;-18596.16;;;-139.74;0.00
76496;BME280;65329;52.544;4.662;2024-01-30T02:18:50;-18334.06;;;-139.74;0.00
76496;BME280;65329;52.544;4.662;2024-01-30T02:21:18;-17809.88;;;-139.74;0.00
76496;BME280;65329;52.544;4.662;2024-01-30T02:23:49;-17809.88;;;-139.74;0.00
76496;BME280;65329;52.544;4.662;2024-01-30T02:26:17;-18334.06;;;-139.74;0.00
76496;BME280;65329;52.544;4.662;2024-01-30T02:28:44;-17285.59;;;-139.74;0.00
76496;BME280;65329;52.544;4.662;2024-01-30T02:31:11;-17285.59;;;-139.74;0.00
76496;BME280;65329;52.544;4.662;2024-01-30T02:33:38;-17809.88;;;-139.74;0.00
76496;BME280;65329;52.544;4.662;2024-01-30T02:36:05;-17547.72;;;-139.74;0.00
76496;BME280;65329;52.544;4.662;2024-01-30T02:38:32;-17547.72;;;-139.74;0.00
76496;BME280;65329;52.544;4.662;2024-01-30T02:40:59;-18334.06;;;-139.74;0.00
76496;BME280;65329;52.544;4.662;2024-01-30T02:43:26;-18597.69;;;-139.74;0.00
76496;BME280;65329;52.544;4.662;2024-01-30T02:45:53;-18597.69;;;-139.74;0.00
76496;BME280;65329;52.544;4.662;2024-01-30T02:48:20;-18597.69;;;-139.74;0.00
76496;BME280;65329;52.544;4.662;2024-01-30T02:50:48;-18597.69;;;-139.74;0.00
76496;BME280;65329;52.544;4.662;2024-01-30T02:53:14;-18597.69;;;-139.74;0.00
76496;BME280;65329;52.544;4.662;2024-01-30T02:55:42;-18597.69;;;-139.74;0.00
76496;BME280;65329;52.544;4.662;2024-01-30T02:58:09;-18597.69;;;-139.74;0.00
76496;BME280;65329;52.544;4.662;2024-01-30T03:00:36;-18597.69;;;-139.74;0.00
76496;BME280;65329;52.544;4.662;2024-01-30T03:03:03;-18597.69;;;-139.74;0.00
76496;BME280;65329;52.544;4.662;2024-01-30T03:05:30;-18597.69;;;-139.74;0.00
76496;BME280;65329;52.544;4.662;2024-01-30T03:07:58;-18597.69;;;-139.74;0.00
76496;BME280;65329;52.544;4.662;2024-01-30T03:10:25;-18597.69;;;-139.74;0.00
76496;BME280;65329;52.544;4.662;2024-01-30T03:12:52;-18597.69;;;-139.74;0.00
76496;BME280;65329;52.544;4.662;2024-01-30T03:15:19;-18597.69;;;-139.74;0.00
76496;BME280;65329;52.544;4.662;2024-01-30T03:17:47;-18597.69;;;-139.74;0.00
76496;BME280;65329;52.544;4.662;2024-01-30T03:20:14;-18596.16;;;-139.74;0.00
76496;BME280;65329;52.544;4.662;2024-01-30T03:22:41;-18597.69;;;-139.74;0.00
76496;BME280;65329;52.544;4.662;2024-01-30T03:25:08;-18597.69;;;-139.74;0.00
76496;BME280;65329;52.544;4.662;2024-01-30T03:27:36;-18597.69;;;-139.74;0.00
76496;BME280;65329;52.544;4.662;2024-01-30T03:30:03;-18597.69;;;-139.74;0.00
76496;BME280;65329;52.544;4.662;2024-01-30T03:32:31;-18596.16;;;-139.74;0.00
76496;BME280;65329;52.544;4.662;2024-01-30T03:34:58;-18596.16;;;-139.74;0.00
76496;BME280;65329;52.544;4.662;2024-01-30T03:37:26;-18597.69;;;-139.74;0.00
76496;BME280;65329;52.544;4.662;2024-01-30T03:39:53;-18597.69;;;-139.74;0.00
76496;BME280;65329;52.544;4.662;2024-01-30T03:42:20;-18597.69;;;-139.74;0.00
76496;BME280;65329;52.544;4.662;2024-01-30T03:44:48;-18597.69;;;-139.74;0.00
76496;BME280;65329;52.544;4.662;2024-01-30T03:47:15;-18597.69;;;-139.74;0.00
76496;BME280;65329;52.544;4.662;2024-01-30T03:49:42;-18597.69;;;-139.74;0.00
76496;BME280;65329;52.544;4.662;2024-01-30T03:52:09;-18597.69;;;-139.74;0.00
76496;BME280;65329;52.544;4.662;2024-01-30T03:54:36;-18597.69;;;-139.74;0.00
76496;BME280;65329;52.544;4.662;2024-01-30T03:57:04;-18597.69;;;-139.74;0.00
76496;BME280;65329;52.544;4.662;2024-01-30T03:59:32;-18597.69;;;-139.74;0.00
76496;BME280;65329;52.544;4.662;2024-01-30T04:01:59;-18597.69;;;-139.74;0.00
76496;BME280;65329;52.544;4.662;2024-01-30T04:04:27;-18597.69;;;-139.74;0.00
76496;BME280;65329;52.544;4.662;2024-01-30T04:06:54;-18597.69;;;-139.74;0.00
76496;BME280;65329;52.544;4.662;2024-01-30T04:09:21;-18597.69;;;-139.74;0.00
76496;BME280;65329;52.544;4.662;2024-01-30T04:11:48;-18597.69;;;-139.74;0.00
76496;BME280;65329;52.544;4.662;2024-01-30T04:14:15;-18597.69;;;-139.74;0.00
76496;BME280;65329;52.544;4.662;2024-01-30T04:16:42;-18597.69;;;-139.74;0.00
76496;BME280;65329;52.544;4.662;2024-01-30T04:19:09;-18597.69;;;-139.74;0.00
76496;BME280;65329;52.544;4.662;2024-01-30T04:21:36;-18597.69;;;-139.74;0.00
76496;BME280;65329;52.544;4.662;2024-01-30T04:24:03;-18597.69;;;-139.74;0.00
76496;BME280;65329;52.544;4.662;2024-01-30T04:26:30;-18597.69;;;-139.74;0.00
76496;BME280;65329;52.544;4.662;2024-01-30T04:28:57;-18597.69;;;-139.74;0.00
76496;BME280;65329;52.544;4.662;2024-01-30T04:31:24;-18596.16;;;-139.74;0.00
76496;BME280;65329;52.544;4.662;2024-01-30T04:33:51;-18596.16;;;-139.74;0.00
76496;BME280;65329;52.544;4.662;2024-01-30T04:36:18;-18597.69;;;-139.74;0.00
76496;BME280;65329;52.544;4.662;2024-01-30T04:38:45;-18597.69;;;-139.74;0.00
76496;BME280;65329;52.544;4.662;2024-01-30T04:41:12;-18597.69;;;-139.74;0.00
76496;BME280;65329;52.544;4.662;2024-01-30T04:43:39;-18597.69;;;-139.74;0.00
76496;BME280;65329;52.544;4.662;2024-01-30T04:46:06;-18597.69;;;-139.74;0.00
76496;BME280;65329;52.544;4.662;2024-01-30T04:48:33;-18597.69;;;-139.74;0.00
76496;BME280;65329;52.544;4.662;2024-01-30T04:51:00;-18597.69;;;-139.74;0.00
76496;BME280;65329;52.544;4.662;2024-01-30T04:53:30;-18597.69;;;-139.74;0.00
76496;BME280;65329;52.544;4.662;2024-01-30T04:55:57;-18597.69;;;-139.74;0.00
76496;BME280;65329;52.544;4.662;2024-01-30T04:58:24;-18597.69;;;-139.74;0.00
76496;BME280;65329;52.544;4.662;2024-01-30T05:00:51;-18596.16;;;-139.74;0.00
76496;BME280;65329;52.544;4.662;2024-01-30T05:03:21;-18596.16;;;-139.74;0.00
76496;BME280;65329;52.544;4.662;2024-01-30T05:05:50;-18596.16;;;-139.74;0.00
76496;BME280;65329;52.544;4.662;2024-01-30T05:08:17;-18596.16;;;-139.74;0.00
76496;BME280;65329;52.544;4.662;2024-01-30T05:10:44;-18596.16;;;-139.74;0.00
76496;BME280;65329;52.544;4.662;2024-01-30T05:13:11;-18596.16;;;-139.74;0.00
76496;BME280;65329;52.544;4.662;2024-01-30T05:15:41;-18597.69;;;-139.74;0.00
76496;BME280;65329;52.544;4.662;2024-01-30T05:18:08;-18596.16;;;-139.74;0.00
76496;BME280;65329;52.544;4.662;2024-01-30T05:20:35;-18596.16;;;-139.74;0.00
76496;BME280;65329;52.544;4.662;2024-01-30T05:23:02;-18596.16;;;-139.74;0.00
76496;BME280;65329;52.544;4.662;2024-01-30T05:25:29;-18596.16;;;-139.74;0.00
76496;BME280;65329;52.544;4.662;2024-01-30T05:27:56;-18597.69;;;-139.74;0.00
76496;BME280;65329;52.544;4.662;2024-01-30T05:30:24;-18596.16;;;-139.74;0.00
76496;BME280;65329;52.544;4.662;2024-01-30T05:32:51;-18334.06;;;-139.74;0.00
76496;BME280;65329;52.544;4.662;2024-01-30T05:35:18;-18597.69;;;-139.74;0.00
76496;BME280;65329;52.544;4.662;2024-01-30T05:37:48;-18597.69;;;-139.74;0.00
76496;BME280;65329;52.544;4.662;2024-01-30T05:40:16;-18597.69;;;-139.74;0.00
76496;BME280;65329;52.544;4.662;2024-01-30T05:42:43;-18597.69;;;-139.74;0.00
76496;BME280;65329;52.544;4.662;2024-01-30T05:45:10;-18597.69;;;-139.74;0.00
76496;BME280;65329;52.544;4.662;2024-01-30T05:47:37;-18596.16;;;-139.74;0.00
76496;BME280;65329;52.544;4.662;2024-01-30T05:50:04;-18596.16;;;-139.74;0.00
76496;BME280;65329;52.544;4.662;2024-01-30T05:52:31;-18597.69;;;-139.74;0.00
76496;BME280;65329;52.544;4.662;2024-01-30T05:54:58;-18597.69;;;-139.74;0.00
76496;BME280;65329;52.544;4.662;2024-01-30T05:57:26;-18334.06;;;-139.74;0.00
76496;BME280;65329;52.544;4.662;2024-01-30T05:59:53;-18334.06;;;-139.74;0.00
76496;BME280;65329;52.544;4.662;2024-01-30T06:02:19;-18597.69;;;-139.74;0.00
76496;BME280;65329;52.544;4.662;2024-01-30T06:04:46;-18597.69;;;-139.74;0.00
76496;BME280;65329;52.544;4.662;2024-01-30T06:07:13;-18597.69;;;-139.74;0.00
76496;BME280;65329;52.544;4.662;2024-01-30T06:09:41;-18597.69;;;-139.74;0.00
76496;BME280;65329;52.544;4.662;2024-01-30T06:12:08;-18597.69;;;-139.74;0.00
76496;BME280;65329;52.544;4.662;2024-01-30T06:14:36;-18597.69;;;-139.74;0.00
76496;BME280;65329;52.544;4.662;2024-01-30T06:17:03;-18596.16;;;-139.74;0.00
76496;BME280;65329;52.544;4.662;2024-01-30T06:19:30;-18334.06;;;-139.74;0.00
76496;BME280;65329;52.544;4.662;2024-01-30T06:21:57;-17809.88;;;-139.74;0.00
76496;BME280;65329;52.544;4.662;2024-01-30T06:24:25;-18071.97;;;-139.74;0.00
76496;BME280;65329;52.544;4.662;2024-01-30T06:26:52;-18071.97;;;-139.74;0.00
76496;BME280;65329;52.544;4.662;2024-01-30T06:29:19;-18334.06;;;-139.74;0.00
76496;BME280;65329;52.544;4.662;2024-01-30T06:31:46;-18596.16;;;-139.74;0.00
76496;BME280;65329;52.544;4.662;2024-01-30T06:34:13;-18334.06;;;-139.74;0.00
76496;BME280;65329;52.544;4.662;2024-01-30T06:36:40;-18334.06;;;-139.74;0.00
76496;BME280;65329;52.544;4.662;2024-01-30T06:39:07;-18596.16;;;-139.74;0.00
76496;BME280;65329;52.544;4.662;2024-01-30T06:41:34;-18597.69;;;-139.74;0.00
76496;BME280;65329;52.544;4.662;2024-01-30T06:44:02;-18597.69;;;-139.74;0.00
76496;BME280;65329;52.544;4.662;2024-01-30T06:46:30;-18596.16;;;-139.74;0.00
76496;BME280;65329;52.544;4.662;2024-01-30T06:48:58;-18334.06;;;-139.74;0.00
76496;BME280;65329;52.544;4.662;2024-01-30T06:51:25;-18596.16;;;-139.74;0.00
76496;BME280;65329;52.544;4.662;2024-01-30T06:53:52;-18596.16;;;-139.74;0.00
76496;BME280;65329;52.544;4.662;2024-01-30T06:56:19;-18071.97;;;-139.74;0.00
76496;BME280;65329;52.544;4.662;2024-01-30T06:58:50;-18334.06;;;-139.74;0.00
76496;BME280;65329;52.544;4.662;2024-01-30T07:01:17;-18596.16;;;-139.74;0.00
76496;BME280;65329;52.544;4.662;2024-01-30T07:03:44;-18334.06;;;-139.74;0.00
76496;BME280;65329;52.544;4.662;2024-01-30T07:06:11;-18596.16;;;-139.74;0.00
76496;BME280;65329;52.544;4.662;2024-01-30T07:08:39;-18596.16;;;-139.74;0.00
76496;BME280;65329;52.544;4.662;2024-01-30T07:11:06;-17809.88;;;-139.74;0.00
76496;BME280;65329;52.544;4.662;2024-01-30T07:13:34;-18334.06;;;-139.74;0.00
76496;BME280;65329;52.544;4.662;2024-01-30T07:16:01;-17809.88;;;-139.74;0.00
76496;BME280;65329;52.544;4.662;2024-01-30T07:18:28;-17285.59;;;-139.74;0.00
76496;BME280;65329;52.544;4.662;2024-01-30T07:20:56;-17285.59;;;-139.74;0.00
76496;BME280;65329;52.544;4.662;2024-01-30T07:23:23;-17547.72;;;-139.74;0.00
76496;BME280;65329;52.544;4.662;2024-01-30T07:25:50;-17023.41;;;-139.74;0.00
76496;BME280;65329;52.544;4.662;2024-01-30T07:28:18;-16236.81;;;-139.74;0.00
76496;BME280;65329;52.544;4.662;2024-01-30T07:30:45;-16236.81;;;-139.74;0.00
76496;BME280;65329;52.544;4.662;2024-01-30T07:33:12;-15974.56;;;-139.74;0.00
76496;BME280;65329;52.544;4.662;2024-01-30T07:35:40;-15974.56;;;-139.74;0.00
76496;BME280;65329;52.544;4.662;2024-01-30T07:38:07;-15450.03;;;-139.74;0.00
76496;BME280;65329;52.544;4.662;2024-01-30T07:40:34;-15187.72;;;-139.74;0.00
76496;BME280;65329;52.544;4.662;2024-01-30T07:43:01;-13613.59;;;-139.74;0.00
76496;BME280;65329;52.544;4.662;2024-01-30T07:45:30;-12563.78;;;-139.74;0.00
76496;BME280;65329;52.544;4.662;2024-01-30T07:48:00;-10200.72;;;-139.74;0.00
76496;BME280;65329;52.544;4.662;2024-01-30T07:50:27;-7310.53;;;-139.74;0.00
76496;BME280;65329;52.544;4.662;2024-01-30T07:52:56;-7573.38;;;-139.74;0.00
76496;BME280;65329;52.544;4.662;2024-01-30T07:55:23;-7573.38;;;-139.74;0.00
76496;BME280;65329;52.544;4.662;2024-01-30T07:57:58;-7836.19;;;-139.74;0.00
76496;BME280;65329;52.544;4.662;2024-01-30T08:00:26;-8098.97;;;-139.74;0.00
76496;BME280;65329;52.544;4.662;2024-01-30T08:02:55;-8361.75;;;-139.74;0.00
76496;BME280;65329;52.544;4.662;2024-01-30T08:05:22;-9675.38;;;-139.74;0.00
76496;BME280;65329;52.544;4.662;2024-01-30T08:07:50;-8887.25;;;-139.74;0.00
76496;BME280;65329;52.544;4.662;2024-01-30T08:10:18;-10725.97;;;-139.74;0.00
76496;BME280;65329;52.544;4.662;2024-01-30T08:12:46;-11251.16;;;-139.74;0.00
76496;BME280;65329;52.544;4.662;2024-01-30T08:15:14;-9675.38;;;-139.74;0.00
76496;BME280;65329;52.544;4.662;2024-01-30T08:17:41;-8098.97;;;-139.74;0.00
76496;BME280;65329;52.544;4.662;2024-01-30T08:20:08;-7310.53;;;-139.74;0.00
76496;BME280;65329;52.544;4.662;2024-01-30T08:22:38;-9150.00;;;-139.74;0.00
76496;BME280;65329;52.544;4.662;2024-01-30T08:25:07;-7573.38;;;-139.74;0.00
76496;BME280;65329;52.544;4.662;2024-01-30T08:27:35;-9938.06;;;-139.74;0.00
76496;BME280;65329;52.544;4.662;2024-01-30T08:30:06;-9938.06;;;-139.74;0.00
76496;BME280;65329;52.544;4.662;2024-01-30T08:32:33;-10200.72;;;-139.74;0.00
76496;BME280;65329;52.544;4.662;2024-01-30T08:35:00;-10463.34;;;-139.74;0.00
76496;BME280;65329;52.544;4.662;2024-01-30T08:37:31;-12563.78;;;-139.74;0.00
76496;BME280;65329;52.544;4.662;2024-01-30T08:39:58;-11776.25;;;-139.74;0.00
76496;BME280;65329;52.544;4.662;2024-01-30T08:42:26;-12301.31;;;-139.74;0.00
76496;BME280;65329;52.544;4.662;2024-01-30T08:44:53;-12563.78;;;-139.74;0.00
76496;BME280;65329;52.544;4.662;2024-01-30T08:47:21;-10463.34;;;-139.74;0.00
76496;BME280;65329;52.544;4.662;2024-01-30T08:49:48;-10200.72;;;-139.74;0.00
76496;BME280;65329;52.544;4.662;2024-01-30T08:52:15;-9675.38;;;-139.74;0.00
76496;BME280;65329;52.544;4.662;2024-01-30T08:54:42;-5733.16;;;-139.74;0.00
76496;BME280;65329;52.544;4.662;2024-01-30T08:57:11;-3628.97;;;-139.74;0.00
76496;BME280;65329;52.544;4.662;2024-01-30T08:59:38;56.13;;;-139.74;0.00
76496;BME280;65329;52.544;4.662;2024-01-30T09:02:06;2690.50;;;-139.74;0.00
76496;BME280;65329;52.544;4.662;2024-01-30T09:04:39;-470.53;;;-139.74;0.00
76496;BME280;65329;52.544;4.662;2024-01-30T09:07:07;319.50;;;-139.74;0.00
76496;BME280;65329;52.544;4.662;2024-01-30T09:09:41;-2576.44;;;-139.74;0.00
76496;BME280;65329;52.544;4.662;2024-01-30T09:12:09;-6521.91;;;-139.74;0.00
76496;BME280;65329;52.544;4.662;2024-01-30T09:14:39;-8361.75;;;-139.74;0.00
76496;BME280;65329;52.544;4.662;2024-01-30T09:17:07;-9150.00;;;-139.74;0.00
76496;BME280;65329;52.544;4.662;2024-01-30T09:19:35;-10200.72;;;-139.74;0.00
76496;BME280;65329;52.544;4.662;2024-01-30T09:22:03;-10725.97;;;-139.74;0.00
76496;BME280;65329;52.544;4.662;2024-01-30T09:24:30;-8887.25;;;-139.74;0.00
76496;BME280;65329;52.544;4.662;2024-01-30T09:26:57;-5996.09;;;-139.74;0.00
76496;BME280;65329;52.544;4.662;2024-01-30T09:29:25;-5470.19;;;-139.74;0.00
76496;BME280;65329;52.544;4.662;2024-01-30T09:31:52;-8624.53;;;-139.74;0.00
76496;BME280;65329;52.544;4.662;2024-01-30T09:34:19;-5733.16;;;-139.74;0.00
76496;BME280;65329;52.544;4.662;2024-01-30T09:36:47;-9412.69;;;-139.74;0.00
76496;BME280;65329;52.544;4.662;2024-01-30T09:39:14;-10463.34;;;-139.74;0.00
76496;BME280;65329;52.544;4.662;2024-01-30T09:44:38;-14925.41;;;-139.74;0.00
76496;BME280;65329;52.544;4.662;2024-01-30T09:47:05;-15712.31;;;-139.74;0.00
76496;BME280;65329;52.544;4.662;2024-01-30T09:49:33;-17547.72;;;-139.74;0.00
76496;BME280;65329;52.544;4.662;2024-01-30T09:52:02;-18334.06;;;-139.74;0.00
76496;BME280;65329;52.544;4.662;2024-01-30T09:54:31;-18596.16;;;-139.74;0.00
76496;BME280;65329;52.544;4.662;2024-01-30T09:57:03;-18596.16;;;-139.74;0.00
76496;BME280;65329;52.544;4.662;2024-01-30T09:59:32;-18596.16;;;-139.74;0.00
76496;BME280;65329;52.544;4.662;2024-01-30T10:02:00;-18596.16;;;-139.74;0.00
76496;BME280;65329;52.544;4.662;2024-01-30T10:04:28;-18596.16;;;-139.74;0.00
76496;BME280;65329;52.544;4.662;2024-01-30T10:06:56;-18596.16;;;-139.74;0.00
76496;BME280;65329;52.544;4.662;2024-01-30T10:09:23;-18597.69;;;-139.74;0.00
76496;BME280;65329;52.544;4.662;2024-01-30T10:11:51;-18597.69;;;-139.74;0.00
76496;BME280;65329;52.544;4.662;2024-01-30T10:14:18;-18597.69;;;-139.74;0.00
76496;BME280;65329;52.544;4.662;2024-01-30T10:16:46;-18597.69;;;-139.74;0.00
76496;BME280;65329;52.544;4.662;2024-01-30T10:19:13;-18597.69;;;-139.74;0.00
76496;BME280;65329;52.544;4.662;2024-01-30T10:21:42;-18597.69;;;-139.74;0.00
76496;BME280;65329;52.544;4.662;2024-01-30T10:24:10;-18596.16;;;-139.74;0.00
76496;BME280;65329;52.544;4.662;2024-01-30T10:26:39;-18334.06;;;-139.74;0.00
76496;BME280;65329;52.544;4.662;2024-01-30T10:29:06;-18334.06;;;-139.74;0.00
76496;BME280;65329;52.544;4.662;2024-01-30T10:31:34;-17547.72;;;-139.74;0.00
76496;BME280;65329;52.544;4.662;2024-01-30T10:34:01;-17547.72;;;-139.74;0.00
76496;BME280;65329;52.544;4.662;2024-01-30T10:36:43;-18596.16;;;-139.74;0.00
76496;BME280;65329;52.544;4.662;2024-01-30T10:39:15;-18596.16;;;-139.74;0.00
76496;BME280;65329;52.544;4.662;2024-01-30T10:41:44;-18596.16;;;-139.74;0.00
76496;BME280;65329;52.544;4.662;2024-01-30T10:44:11;-18597.69;;;-139.74;0.00
76496;BME280;65329;52.544;4.662;2024-01-30T10:46:42;-18597.69;;;-139.74;0.00
76496;BME280;65329;52.544;4.662;2024-01-30T10:49:14;-18597.69;;;-139.74;0.00
76496;BME280;65329;52.544;4.662;2024-01-30T10:51:42;-18596.16;;;-139.74;0.00
76496;BME280;65329;52.544;4.662;2024-01-30T10:54:11;-18597.69;;;-139.74;0.00
76496;BME280;65329;52.544;4.662;2024-01-30T10:56:39;-18596.16;;;-139.74;0.00
76496;BME280;65329;52.544;4.662;2024-01-30T10:59:07;-18596.16;;;-139.74;0.00
76496;BME280;65329;52.544;4.662;2024-01-30T11:01:37;-18597.69;;;-139.74;0.00
76496;BME280;65329;52.544;4.662;2024-01-30T11:04:05;-18597.69;;;-139.74;0.00
76496;BME280;65329;52.544;4.662;2024-01-30T11:06:41;-17285.59;;;-139.74;0.00
76496;BME280;65329;52.544;4.662;2024-01-30T11:09:10;-18597.69;;;-139.74;0.00
76496;BME280;65329;52.544;4.662;2024-01-30T11:11:56;-18597.69;;;-139.74;0.00
76496;BME280;65329;52.544;4.662;2024-01-30T11:14:29;-18597.69;;;-139.74;0.00
76496;BME280;65329;52.544;4.662;2024-01-30T11:16:59;-18597.69;;;-139.74;0.00
76496;BME280;65329;52.544;4.662;2024-01-30T11:19:30;-18596.16;;;-139.74;0.00
76496;BME280;65329;52.544;4.662;2024-01-30T11:22:00;-18597.69;;;-139.74;0.00
76496;BME280;65329;52.544;4.662;2024-01-30T11:24:38;-18596.16;;;-139.74;0.00
76496;BME280;65329;52.544;4.662;2024-01-30T11:27:08;-18071.97;;;-139.74;0.00
76496;BME280;65329;52.544;4.662;2024-01-30T11:29:36;-17547.72;;;-139.74;0.00
76496;BME280;65329;52.544;4.662;2024-01-30T11:32:04;-17809.88;;;-139.74;0.00
76496;BME280;65329;52.544;4.662;2024-01-30T11:34:32;-18071.97;;;-139.74;0.00
76496;BME280;65329;52.544;4.662;2024-01-30T11:37:04;-16499.03;;;-139.74;0.00
76496;BME280;65329;52.544;4.662;2024-01-30T11:39:35;-16499.03;;;-139.74;0.00
76496;BME280;65329;52.544;4.662;2024-01-30T11:42:04;-15974.56;;;-139.74;0.00
76496;BME280;65329;52.544;4.662;2024-01-30T11:44:32;-16499.03;;;-139.74;0.00
76496;BME280;65329;52.544;4.662;2024-01-30T11:46:59;-16761.22;;;-139.74;0.00
76496;BME280;65329;52.544;4.662;2024-01-30T11:49:26;-15187.72;;;-139.74;0.00
76496;BME280;65329;52.544;4.662;2024-01-30T11:51:53;-15187.72;;;-139.74;0.00
76496;BME280;65329;52.544;4.662;2024-01-30T11:54:21;-15974.56;;;-139.74;0.00
76496;BME280;65329;52.544;4.662;2024-01-30T11:56:48;-14400.75;;;-139.74;0.00
76496;BME280;65329;52.544;4.662;2024-01-30T11:59:15;-15712.31;;;-139.74;0.00
76496;BME280;65329;52.544;4.662;2024-01-30T12:01:43;-17023.41;;;-139.74;0.00
76496;BME280;65329;52.544;4.662;2024-01-30T12:04:10;-16761.22;;;-139.74;0.00
76496;BME280;65329;52.544;4.662;2024-01-30T12:06:39;-17285.59;;;-139.74;0.00
76496;BME280;65329;52.544;4.662;2024-01-30T12:09:07;-17547.72;;;-139.74;0.00
76496;BME280;65329;52.544;4.662;2024-01-30T12:11:48;-16761.22;;;-139.74;0.00
76496;BME280;65329;52.544;4.662;2024-01-30T12:14:19;-17547.72;;;-139.74;0.00
76496;BME280;65329;52.544;4.662;2024-01-30T12:16:50;-15712.31;;;-139.74;0.00
76496;BME280;65329;52.544;4.662;2024-01-30T12:19:24;-15712.31;;;-139.74;0.00
76496;BME280;65329;52.544;4.662;2024-01-30T12:21:58;-13088.72;;;-139.74;0.00
76496;BME280;65329;52.544;4.662;2024-01-30T12:24:27;-13876.00;;;-139.74;0.00
76496;BME280;65329;52.544;4.662;2024-01-30T12:26:58;-14400.75;;;-139.74;0.00
76496;BME280;65329;52.544;4.662;2024-01-30T12:29:25;-15450.03;;;-139.74;0.00
76496;BME280;65329;52.544;4.662;2024-01-30T12:31:59;-15974.56;;;-139.74;0.00
76496;BME280;65329;52.544;4.662;2024-01-30T12:34:26;-11251.16;;;-139.74;0.00
76496;BME280;65329;52.544;4.662;2024-01-30T12:36:54;-11776.25;;;-139.74;0.00
76496;BME280;65329;52.544;4.662;2024-01-30T12:39:21;-18597.69;;;-139.74;0.00
76496;BME280;65329;52.544;4.662;2024-01-30T12:41:49;-18597.69;;;-139.74;0.00
76496;BME280;65329;52.544;4.662;2024-01-30T12:44:16;-18597.69;;;-139.74;0.00
76496;BME280;65329;52.544;4.662;2024-01-30T12:46:43;-18597.69;;;-139.74;0.00